createdAt,value
2018-09-20T00:01:14.858Z,12.63
2018-09-20T00:03:42.262Z,13.33
2018-09-20T00:06:09.623Z,12.67
2018-09-20T00:08:36.996Z,12.13
2018-09-20T00:11:04.378Z,14.97
2018-09-20T00:13:31.752Z,12.03
2018-09-20T00:15:59.158Z,10.77
2018-09-20T00:18:26.559Z,10.77
2018-09-20T00:20:54.003Z,14.23
2018-09-20T00:23:21.444Z,13.80
2018-09-20T00:25:48.910Z,15.60
2018-09-20T00:28:16.319Z,12.83
2018-09-20T00:30:43.759Z,13.40
2018-09-20T00:33:11.214Z,12.67
2018-09-20T00:35:38.673Z,16.97
2018-09-20T00:38:06.074Z,13.57
2018-09-20T00:40:33.468Z,13.87
2018-09-20T00:43:00.843Z,13.50
2018-09-20T00:45:28.259Z,14.03
2018-09-20T00:47:55.637Z,15.37
2018-09-20T00:50:23.045Z,14.07
2018-09-20T00:52:50.411Z,12.57
2018-09-20T00:55:17.811Z,15.80
2018-09-20T00:57:45.228Z,13.90
2018-09-20T01:00:12.638Z,12.80
2018-09-20T01:02:40.072Z,13.70
2018-09-20T01:05:07.523Z,14.17
2018-09-20T01:07:34.982Z,15.33
2018-09-20T01:10:02.434Z,14.93
2018-09-20T01:12:29.869Z,17.70
2018-09-20T01:14:57.254Z,14.13
2018-09-20T01:17:24.693Z,13.80
2018-09-20T01:19:52.058Z,16.33
2018-09-20T01:22:19.508Z,16.63
2018-09-20T01:24:46.909Z,14.63
2018-09-20T01:27:14.307Z,15.47
2018-09-20T01:29:41.774Z,14.90
2018-09-20T01:32:09.193Z,13.87
2018-09-20T01:34:36.607Z,13.47
2018-09-20T01:37:05.888Z,11.83
2018-09-20T01:39:33.289Z,13.90
2018-09-20T01:42:00.697Z,12.97
2018-09-20T01:44:28.036Z,14.57
2018-09-20T01:46:55.453Z,12.03
2018-09-20T01:49:22.887Z,13.00
2018-09-20T01:51:50.286Z,17.13
2018-09-20T01:54:17.728Z,11.57
2018-09-20T01:56:45.124Z,12.97
2018-09-20T01:59:12.489Z,13.80
2018-09-20T02:01:39.897Z,13.23
2018-09-20T02:04:07.373Z,14.00
2018-09-20T02:06:34.767Z,15.63
2018-09-20T02:09:02.396Z,12.23
2018-09-20T02:11:29.776Z,13.93
2018-09-20T02:13:57.229Z,14.20
2018-09-20T02:16:24.650Z,14.30
2018-09-20T02:18:52.104Z,12.53
2018-09-20T02:21:19.468Z,12.20
2018-09-20T02:23:46.848Z,11.03
2018-09-20T02:26:14.235Z,12.33
2018-09-20T02:28:41.697Z,12.30
2018-09-20T02:31:09.084Z,13.77
2018-09-20T02:33:36.503Z,14.43
2018-09-20T02:36:04.464Z,13.87
2018-09-20T02:38:31.945Z,12.03
2018-09-20T02:40:59.351Z,13.30
2018-09-20T02:43:26.762Z,14.77
2018-09-20T02:45:54.213Z,14.23
2018-09-20T02:48:21.590Z,12.13
2018-09-20T02:50:48.992Z,13.87
2018-09-20T02:53:16.376Z,12.73
2018-09-20T02:55:43.790Z,13.20
2018-09-20T02:58:11.150Z,13.83
2018-09-20T03:00:38.579Z,13.53
2018-09-20T03:03:05.958Z,13.17
2018-09-20T03:05:33.338Z,13.23
2018-09-20T03:08:00.737Z,12.63
2018-09-20T03:10:28.129Z,12.47
2018-09-20T03:12:55.504Z,10.63
2018-09-20T03:15:22.967Z,14.23
2018-09-20T03:17:50.373Z,12.83
2018-09-20T03:20:17.799Z,13.03
2018-09-20T03:22:45.209Z,12.57
2018-09-20T03:25:12.642Z,12.67
2018-09-20T03:27:39.971Z,11.63
2018-09-20T03:30:07.331Z,12.80
2018-09-20T03:32:34.755Z,12.30
2018-09-20T03:35:09.898Z,12.00
2018-09-20T03:37:37.352Z,13.17
2018-09-20T03:40:04.784Z,14.17
2018-09-20T03:42:32.205Z,13.70
2018-09-20T03:44:59.578Z,10.73
2018-09-20T03:47:27.009Z,12.53
2018-09-20T03:49:54.633Z,11.03
2018-09-20T03:52:22.009Z,12.43
2018-09-20T03:54:49.440Z,11.63
2018-09-20T03:57:16.865Z,11.23
2018-09-20T03:59:44.300Z,10.57
2018-09-20T04:02:11.724Z,14.53
2018-09-20T04:04:39.154Z,13.67
2018-09-20T04:07:06.722Z,13.03
2018-09-20T04:09:34.181Z,12.20
2018-09-20T04:12:01.522Z,14.97
2018-09-20T04:14:28.965Z,13.37
2018-09-20T04:16:56.361Z,11.67
2018-09-20T04:19:23.779Z,12.97
2018-09-20T04:21:51.429Z,11.00
2018-09-20T04:24:18.850Z,12.30
2018-09-20T04:26:46.238Z,13.77
2018-09-20T04:29:13.645Z,11.83
2018-09-20T04:31:41.096Z,12.87
2018-09-20T04:34:08.429Z,13.90
2018-09-20T04:36:35.819Z,13.57
2018-09-20T04:39:03.913Z,13.17
2018-09-20T04:41:31.298Z,16.00
2018-09-20T04:43:58.724Z,14.20
2018-09-20T04:46:26.130Z,11.07
2018-09-20T04:48:53.534Z,12.30
2018-09-20T04:51:20.910Z,12.47
2018-09-20T04:53:48.374Z,11.20
2018-09-20T04:56:15.798Z,11.90
2018-09-20T04:58:43.198Z,11.73
2018-09-20T05:01:10.626Z,13.83
2018-09-20T05:03:38.069Z,14.90
2018-09-20T05:06:05.536Z,13.20
2018-09-20T05:08:32.959Z,11.60
2018-09-20T05:11:00.364Z,11.37
2018-09-20T05:13:27.805Z,13.00
2018-09-20T05:15:55.220Z,11.97
2018-09-20T05:18:22.653Z,11.80
2018-09-20T05:20:50.053Z,12.57
2018-09-20T05:23:17.511Z,13.77
2018-09-20T05:25:44.959Z,12.00
2018-09-20T05:28:12.374Z,13.70
2018-09-20T05:30:39.765Z,11.00
2018-09-20T05:33:07.228Z,12.50
2018-09-20T05:35:34.674Z,15.97
2018-09-20T05:38:02.045Z,12.90
2018-09-20T05:40:29.750Z,11.77
2018-09-20T05:42:57.255Z,12.17
2018-09-20T05:45:24.681Z,13.60
2018-09-20T05:47:52.094Z,14.17
2018-09-20T05:50:19.505Z,13.53
2018-09-20T05:52:46.932Z,12.57
2018-09-20T05:55:14.595Z,11.83
2018-09-20T05:57:42.011Z,11.30
2018-09-20T06:00:09.736Z,12.30
2018-09-20T06:02:37.118Z,13.60
2018-09-20T06:05:05.000Z,12.43
2018-09-20T06:07:32.416Z,12.83
2018-09-20T06:09:59.916Z,14.33
2018-09-20T06:12:27.343Z,13.13
2018-09-20T06:14:54.774Z,13.07
2018-09-20T06:17:22.291Z,13.40
2018-09-20T06:19:49.720Z,11.47
2018-09-20T06:22:17.117Z,12.23
2018-09-20T06:24:44.552Z,12.90
2018-09-20T06:27:12.034Z,11.63
2018-09-20T06:29:39.460Z,13.37
2018-09-20T06:32:07.485Z,12.47
2018-09-20T06:34:34.941Z,12.30
2018-09-20T06:37:02.400Z,10.63
2018-09-20T06:39:29.805Z,11.63
2018-09-20T06:41:57.369Z,11.97
2018-09-20T06:44:24.838Z,13.67
2018-09-20T06:46:52.276Z,12.90
2018-09-20T06:49:19.695Z,13.20
2018-09-20T06:51:47.120Z,16.23
2018-09-20T06:54:14.558Z,13.57
2018-09-20T06:56:42.148Z,14.60
2018-09-20T06:59:09.517Z,13.50
2018-09-20T07:01:36.949Z,12.50
2018-09-20T07:04:04.340Z,13.67
2018-09-20T07:06:31.844Z,14.87
2018-09-20T07:08:59.285Z,14.97
2018-09-20T07:11:26.729Z,14.43
2018-09-20T07:13:54.155Z,13.83
2018-09-20T07:16:21.559Z,14.47
2018-09-20T07:18:49.000Z,14.97
2018-09-20T07:21:16.440Z,15.50
2018-09-20T07:23:43.869Z,13.73
2018-09-20T07:26:11.301Z,14.60
2018-09-20T07:28:38.737Z,12.40
2018-09-20T07:31:06.206Z,12.47
2018-09-20T07:33:33.612Z,10.50
2018-09-20T07:36:01.047Z,13.07
2018-09-20T07:38:28.444Z,13.70
2018-09-20T07:40:55.890Z,10.73
2018-09-20T07:43:23.314Z,11.60
2018-09-20T07:45:50.932Z,10.60
2018-09-20T07:48:18.464Z,10.33
2018-09-20T07:50:45.884Z,11.07
2018-09-20T07:53:13.318Z,9.03
2018-09-20T07:55:40.896Z,11.27
2018-09-20T07:58:08.326Z,13.40
2018-09-20T08:00:35.731Z,11.63
2018-09-20T08:03:03.212Z,10.00
2018-09-20T08:05:30.650Z,14.83
2018-09-20T08:07:58.084Z,9.70
2018-09-20T08:10:25.536Z,10.17
2018-09-20T08:12:53.016Z,8.70
2018-09-20T08:15:20.423Z,7.07
2018-09-20T08:17:47.839Z,7.37
2018-09-20T08:20:15.281Z,8.53
2018-09-20T08:22:42.691Z,9.50
2018-09-20T08:25:10.099Z,8.57
2018-09-20T08:27:37.590Z,7.13
2018-09-20T08:30:05.990Z,8.30
2018-09-20T08:32:33.374Z,7.43
2018-09-20T08:35:00.835Z,9.47
2018-09-20T08:37:28.335Z,7.00
2018-09-20T08:39:55.640Z,8.77
2018-09-20T08:42:23.310Z,7.23
2018-09-20T08:44:50.638Z,7.23
2018-09-20T08:47:18.076Z,6.50
2018-09-20T08:49:45.562Z,8.43
2018-09-20T08:52:13.017Z,5.97
2018-09-20T08:54:40.471Z,6.60
2018-09-20T08:57:07.987Z,6.30
2018-09-20T08:59:35.438Z,5.73
2018-09-20T09:02:02.915Z,6.10
2018-09-20T09:04:30.410Z,6.20
2018-09-20T09:06:57.836Z,6.17
2018-09-20T09:09:25.516Z,8.33
2018-09-20T09:11:52.974Z,5.30
2018-09-20T09:14:20.418Z,8.23
2018-09-20T09:16:47.847Z,5.33
2018-09-20T09:19:15.280Z,6.63
2018-09-20T09:21:42.725Z,6.17
2018-09-20T09:24:10.115Z,5.53
2018-09-20T09:26:37.540Z,5.00
2018-09-20T09:29:05.007Z,6.77
2018-09-20T09:31:32.401Z,5.37
2018-09-20T09:33:59.895Z,7.10
2018-09-20T09:36:27.265Z,5.27
2018-09-20T09:38:54.799Z,6.28
2018-09-20T09:41:22.251Z,5.87
2018-09-20T09:43:49.650Z,5.20
2018-09-20T09:46:18.456Z,6.77
2018-09-20T09:48:45.896Z,5.22
2018-09-20T09:51:13.289Z,5.12
2018-09-20T09:53:40.865Z,7.33
2018-09-20T09:56:08.256Z,5.40
2018-09-20T09:58:35.676Z,6.17
2018-09-20T10:01:03.104Z,9.00
2018-09-20T10:03:30.485Z,4.87
2018-09-20T10:05:57.988Z,7.40
2018-09-20T10:08:25.394Z,4.78
2018-09-20T10:10:52.807Z,5.30
2018-09-20T10:13:20.294Z,6.22
2018-09-20T10:15:47.682Z,4.72
2018-09-20T10:18:15.082Z,4.17
2018-09-20T10:20:42.517Z,4.80
2018-09-20T10:23:09.882Z,4.10
2018-09-20T10:25:37.340Z,5.90
2018-09-20T10:28:04.849Z,4.65
2018-09-20T10:30:32.297Z,5.08
2018-09-20T10:32:59.685Z,5.70
2018-09-20T10:35:27.843Z,5.10
2018-09-20T10:37:55.905Z,5.75
2018-09-20T10:40:24.268Z,5.55
2018-09-20T10:42:51.695Z,5.03
2018-09-20T10:45:19.072Z,5.30
2018-09-20T10:47:46.513Z,5.22
2018-09-20T10:50:13.912Z,5.25
2018-09-20T10:52:41.343Z,4.85
2018-09-20T10:55:08.783Z,5.20
2018-09-20T10:57:36.828Z,5.37
2018-09-20T11:00:04.734Z,5.08
2018-09-20T11:02:32.213Z,5.78
2018-09-20T11:04:59.656Z,4.92
2018-09-20T11:07:27.145Z,4.97
2018-09-20T11:09:55.057Z,5.78
2018-09-20T11:12:22.468Z,4.30
2018-09-20T11:14:49.856Z,4.25
2018-09-20T11:17:17.308Z,4.17
2018-09-20T11:19:44.685Z,3.80
2018-09-20T11:22:12.691Z,3.87
2018-09-20T11:24:40.196Z,5.03
2018-09-20T11:27:07.603Z,5.05
2018-09-20T11:29:35.055Z,3.83
2018-09-20T11:32:02.486Z,4.85
2018-09-20T11:34:29.965Z,5.47
2018-09-20T11:36:57.326Z,4.28
2018-09-20T11:39:25.407Z,5.20
2018-09-20T11:41:52.782Z,4.47
2018-09-20T11:44:20.221Z,6.37
2018-09-20T11:46:47.605Z,5.45
2018-09-20T11:49:15.037Z,4.75
2018-09-20T11:51:42.427Z,4.83
2018-09-20T11:54:11.188Z,4.40
2018-09-20T11:56:38.612Z,5.53
2018-09-20T11:59:06.246Z,4.35
2018-09-20T12:01:33.603Z,5.22
2018-09-20T12:04:01.046Z,6.15
2018-09-20T12:06:28.508Z,5.22
2018-09-20T12:08:55.942Z,4.65
2018-09-20T12:11:23.508Z,4.78
2018-09-20T12:13:50.952Z,5.17
2018-09-20T12:16:19.081Z,4.90
2018-09-20T12:18:46.513Z,5.30
2018-09-20T12:21:13.982Z,6.83
2018-09-20T12:23:41.395Z,5.05
2018-09-20T12:26:08.958Z,5.40
2018-09-20T12:28:36.372Z,4.58
2018-09-20T12:31:03.937Z,5.33
2018-09-20T12:33:31.376Z,5.03
2018-09-20T12:35:59.074Z,5.87
2018-09-20T12:38:27.062Z,4.85
2018-09-20T12:40:54.492Z,5.20
2018-09-20T12:43:21.901Z,4.60
2018-09-20T12:45:49.311Z,5.30
2018-09-20T12:48:16.785Z,8.03
2018-09-20T12:50:44.176Z,5.03
2018-09-20T12:53:11.562Z,4.70
2018-09-20T12:55:38.983Z,4.28
2018-09-20T12:58:06.400Z,5.97
2018-09-20T13:00:34.171Z,5.20
2018-09-20T13:03:01.583Z,4.90
2018-09-20T13:05:29.098Z,4.80
2018-09-20T13:07:57.061Z,5.10
2018-09-20T13:10:25.103Z,5.10
2018-09-20T13:12:52.570Z,5.47
2018-09-20T13:15:19.917Z,6.67
2018-09-20T13:17:48.330Z,4.70
2018-09-20T13:20:15.867Z,5.42
2018-09-20T13:22:43.877Z,6.17
2018-09-20T13:25:11.345Z,5.12
2018-09-20T13:27:38.743Z,7.55
2018-09-20T13:30:06.186Z,5.33
2018-09-20T13:32:33.649Z,5.80
2018-09-20T13:35:01.183Z,6.62
2018-09-20T13:37:28.582Z,5.67
2018-09-20T13:39:56.062Z,5.78
2018-09-20T13:42:23.463Z,5.40
2018-09-20T13:44:50.916Z,5.42
2018-09-20T13:47:19.161Z,5.70
2018-09-20T13:49:46.687Z,6.60
2018-09-20T13:52:14.087Z,6.53
2018-09-20T13:54:42.000Z,4.67
2018-09-20T13:57:09.992Z,6.22
2018-09-20T13:59:37.350Z,4.78
2018-09-20T14:02:04.816Z,5.08
2018-09-20T14:04:32.271Z,5.80
2018-09-20T14:06:59.709Z,4.42
2018-09-20T14:09:27.106Z,4.50
2018-09-20T14:11:54.550Z,4.70
2018-09-20T14:14:22.054Z,4.58
2018-09-20T14:16:49.417Z,4.35
2018-09-20T14:19:16.876Z,4.25
2018-09-20T14:21:44.300Z,5.67
2018-09-20T14:24:11.776Z,4.55
2018-09-20T14:26:39.234Z,5.78
2018-09-20T14:29:06.647Z,4.50
2018-09-20T14:31:34.191Z,4.15
2018-09-20T14:34:01.595Z,4.42
2018-09-20T14:36:29.074Z,4.35
2018-09-20T14:38:56.499Z,4.87
2018-09-20T14:41:23.937Z,5.37
2018-09-20T14:43:51.326Z,6.00
2018-09-20T14:46:18.746Z,4.97
2018-09-20T14:48:46.162Z,4.55
2018-09-20T14:51:13.598Z,4.67
2018-09-20T14:53:41.020Z,4.10
2018-09-20T14:56:08.472Z,4.60
2018-09-20T14:58:36.145Z,4.80
2018-09-20T15:01:05.063Z,4.22
2018-09-20T15:03:32.567Z,4.47
2018-09-20T15:05:59.968Z,3.87
2018-09-20T15:08:27.573Z,4.15
2018-09-20T15:10:54.962Z,4.22
2018-09-20T15:13:22.377Z,4.35
2018-09-20T15:15:49.737Z,4.20
2018-09-20T15:18:17.143Z,4.00
2018-09-20T15:20:44.587Z,5.00
2018-09-20T15:23:12.053Z,4.08
2018-09-20T15:25:39.443Z,5.20
2018-09-20T15:28:06.916Z,4.40
2018-09-20T15:30:34.335Z,4.15
2018-09-20T15:33:01.838Z,4.75
2018-09-20T15:35:29.341Z,4.30
2018-09-20T15:37:57.597Z,5.20
2018-09-20T15:40:25.062Z,4.03
2018-09-20T15:42:52.464Z,5.20
2018-09-20T15:45:20.119Z,4.37
2018-09-20T15:47:47.503Z,4.42
2018-09-20T15:50:14.972Z,5.50
2018-09-20T15:52:42.481Z,4.62
2018-09-20T15:55:09.979Z,5.10
2018-09-20T15:57:37.604Z,5.08
2018-09-20T16:00:05.353Z,5.40
2018-09-20T16:02:32.837Z,4.47
2018-09-20T16:05:00.392Z,4.80
2018-09-20T16:07:28.173Z,4.72
2018-09-20T16:10:50.237Z,6.08
2018-09-20T16:13:17.594Z,6.65
2018-09-20T16:15:45.039Z,4.72
2018-09-20T16:18:12.441Z,4.95
2018-09-20T16:20:40.430Z,5.03
2018-09-20T16:23:07.905Z,5.30
2018-09-20T16:25:35.412Z,5.80
2018-09-20T16:28:10.497Z,5.20
2018-09-20T16:31:12.211Z,5.33
2018-09-20T16:33:49.617Z,5.30
2018-09-20T16:36:30.213Z,7.53
2018-09-20T16:39:07.153Z,5.77
2018-09-20T16:41:38.108Z,7.53
2018-09-20T16:44:05.544Z,5.90
2018-09-20T16:46:32.967Z,5.57
2018-09-20T16:49:00.435Z,6.97
2018-09-20T16:51:27.849Z,6.57
2018-09-20T16:53:55.264Z,5.37
2018-09-20T16:56:22.728Z,5.90
2018-09-20T16:58:51.443Z,6.33
2018-09-20T17:01:19.460Z,6.37
2018-09-20T17:03:47.207Z,5.80
2018-09-20T17:06:14.864Z,5.07
2018-09-20T17:08:42.320Z,5.10
2018-09-20T17:11:09.852Z,5.10
2018-09-20T17:13:37.310Z,5.67
2018-09-20T17:16:04.762Z,5.83
2018-09-20T17:18:32.123Z,5.33
2018-09-20T17:20:59.515Z,6.40
2018-09-20T17:23:26.954Z,8.27
2018-09-20T17:25:54.429Z,6.23
2018-09-20T17:28:21.917Z,5.97
2018-09-20T17:30:49.479Z,6.43
2018-09-20T17:33:17.065Z,5.63
2018-09-20T17:35:44.986Z,17.83
2018-09-20T17:38:12.898Z,8.23
2018-09-20T17:40:42.468Z,6.77
2018-09-20T17:43:13.383Z,7.73
2018-09-20T17:45:40.785Z,9.00
2018-09-20T17:48:08.198Z,6.47
2018-09-20T17:50:35.673Z,8.00
2018-09-20T17:53:03.333Z,6.60
2018-09-20T17:55:31.119Z,7.87
2018-09-20T17:57:59.406Z,6.80
2018-09-20T18:00:26.853Z,6.53
2018-09-20T18:02:54.598Z,7.43
2018-09-20T18:05:23.076Z,6.47
2018-09-20T18:07:51.372Z,7.80
2018-09-20T18:10:18.825Z,7.17
2018-09-20T18:12:47.099Z,6.00
2018-09-20T18:15:14.543Z,8.73
2018-09-20T18:17:42.045Z,8.87
2018-09-20T18:20:09.535Z,8.03
2018-09-20T18:22:36.942Z,7.07
2018-09-20T18:25:04.483Z,7.60
2018-09-20T18:27:31.929Z,7.37
2018-09-20T18:29:59.373Z,11.13
2018-09-20T18:32:26.941Z,6.77
2018-09-20T18:34:54.358Z,8.20
2018-09-20T18:37:21.828Z,8.70
2018-09-20T18:39:49.240Z,7.50
2018-09-20T18:42:16.771Z,8.90
2018-09-20T18:44:44.203Z,10.97
2018-09-20T18:47:11.692Z,10.90
2018-09-20T18:49:39.100Z,9.53
2018-09-20T18:52:06.569Z,10.23
2018-09-20T18:54:33.972Z,8.63
2018-09-20T18:57:01.474Z,10.20
2018-09-20T18:59:28.883Z,11.07
2018-09-20T19:01:56.319Z,8.23
2018-09-20T19:04:23.774Z,13.67
2018-09-20T19:06:51.226Z,10.70
2018-09-20T19:09:18.689Z,12.23
2018-09-20T19:11:46.067Z,12.17
2018-09-20T19:14:13.499Z,9.73
2018-09-20T19:16:40.960Z,11.13
2018-09-20T19:19:17.930Z,10.43
2018-09-20T19:21:45.440Z,8.47
2018-09-20T19:24:12.915Z,11.83
2018-09-20T19:26:40.340Z,10.63
2018-09-20T19:29:07.789Z,9.97
2018-09-20T19:31:35.245Z,11.07
2018-09-20T19:34:02.731Z,10.00
2018-09-20T19:36:30.154Z,12.40
2018-09-20T19:38:57.621Z,10.37
2018-09-20T19:41:25.099Z,11.23
2018-09-20T19:43:52.773Z,8.03
2018-09-20T19:46:20.540Z,11.40
2018-09-20T19:48:47.963Z,8.77
2018-09-20T19:51:15.437Z,8.73
2018-09-20T19:53:42.980Z,9.07
2018-09-20T19:56:10.615Z,10.23
2018-09-20T19:58:38.735Z,8.90
2018-09-20T20:01:06.194Z,10.93
2018-09-20T20:03:33.789Z,9.63
2018-09-20T20:06:01.264Z,10.23
2018-09-20T20:08:29.623Z,11.60
2018-09-20T20:10:57.102Z,10.60
2018-09-20T20:13:24.788Z,9.67
2018-09-20T20:15:52.187Z,9.97
2018-09-20T20:18:19.703Z,11.97
2018-09-20T20:20:47.113Z,9.90
2018-09-20T20:23:14.644Z,13.40
2018-09-20T20:25:42.250Z,10.80
2018-09-20T20:28:09.723Z,12.63
2018-09-20T20:30:37.115Z,12.70
2018-09-20T20:33:05.162Z,12.65
2018-09-20T20:35:32.669Z,11.47
2018-09-20T20:38:01.123Z,11.23
2018-09-20T20:40:29.899Z,10.90
2018-09-20T20:42:57.518Z,10.60
2018-09-20T20:45:24.914Z,11.60
2018-09-20T20:47:52.377Z,15.07
2018-09-20T20:50:19.814Z,14.87
2018-09-20T20:52:48.077Z,11.83
2018-09-20T20:55:15.724Z,10.37
2018-09-20T20:57:44.331Z,10.57
2018-09-20T21:00:12.405Z,11.70
2018-09-20T21:02:40.549Z,11.70
2018-09-20T21:05:08.128Z,11.47
2018-09-20T21:07:35.671Z,12.17
2018-09-20T21:10:03.534Z,11.63
2018-09-20T21:12:31.150Z,10.50
2018-09-20T21:14:59.295Z,12.60
2018-09-20T21:17:27.219Z,11.17
2018-09-20T21:19:55.156Z,12.73
2018-09-20T21:22:22.640Z,12.90
2018-09-20T21:24:50.704Z,11.33
2018-09-20T21:27:20.185Z,11.40
2018-09-20T21:29:48.345Z,9.80
2018-09-20T21:32:16.030Z,9.53
2018-09-20T21:34:43.899Z,12.53
2018-09-20T21:37:11.815Z,12.53
2018-09-20T21:39:39.530Z,10.67
2018-09-20T21:42:07.956Z,12.23
2018-09-20T21:44:35.519Z,15.30
2018-09-20T21:47:02.913Z,11.50
2018-09-20T21:49:30.876Z,10.90
2018-09-20T21:51:58.291Z,10.90
2018-09-20T21:54:25.899Z,10.90
2018-09-20T21:56:53.447Z,10.60
2018-09-20T21:59:20.848Z,12.90
2018-09-20T22:01:53.844Z,9.70
2018-09-20T22:04:21.353Z,11.67
2018-09-20T22:06:48.920Z,10.83
2018-09-20T22:09:16.435Z,10.30
2018-09-20T22:11:44.024Z,10.70
2018-09-20T22:14:11.403Z,11.33
2018-09-20T22:16:39.124Z,11.03
2018-09-20T22:19:07.570Z,11.13
2018-09-20T22:21:35.055Z,10.53
2018-09-20T22:24:02.941Z,12.03
2018-09-20T22:26:30.739Z,12.17
2018-09-20T22:28:58.284Z,10.93
2018-09-20T22:31:25.678Z,12.40
2018-09-20T22:33:53.145Z,12.30
2018-09-20T22:36:20.541Z,11.13
2018-09-20T22:38:48.245Z,11.87
2018-09-20T22:41:15.796Z,11.67
2018-09-20T22:43:43.244Z,12.27
2018-09-20T22:46:10.644Z,11.20
2018-09-20T22:48:38.406Z,13.30
2018-09-20T22:51:06.125Z,11.73
2018-09-20T22:53:34.326Z,13.03
2018-09-20T22:56:02.204Z,11.73
2018-09-20T22:58:30.111Z,11.97
2018-09-20T23:00:57.496Z,13.60
2018-09-20T23:03:24.984Z,13.80
2018-09-20T23:05:52.435Z,14.40
2018-09-20T23:08:20.056Z,11.50
2018-09-20T23:10:47.464Z,10.73
2018-09-20T23:13:14.888Z,12.97
2018-09-20T23:15:42.320Z,11.23
2018-09-20T23:18:09.711Z,10.97
2018-09-20T23:20:37.181Z,11.93
2018-09-20T23:23:04.675Z,13.57
2018-09-20T23:25:32.089Z,12.23
2018-09-20T23:27:59.494Z,11.97
2018-09-20T23:30:26.920Z,12.23
2018-09-20T23:32:54.287Z,10.30
2018-09-20T23:35:21.743Z,12.47
2018-09-20T23:37:49.128Z,12.37
2018-09-20T23:40:16.533Z,13.20
2018-09-20T23:42:43.923Z,11.03
2018-09-20T23:45:11.350Z,13.97
2018-09-20T23:47:38.694Z,12.63
2018-09-20T23:50:06.108Z,11.43
2018-09-20T23:52:33.497Z,15.20
2018-09-20T23:55:00.893Z,14.60
2018-09-20T23:57:28.272Z,11.17
2018-09-20T23:59:55.759Z,10.17
